Time;durP1;ratioP1;P1;durP2;ratioP2;P2;SDS_P1;SDS_P2;PMS_P1;PMS_P2;Temp;Humidity;BMP_temperature;BMP_pressure;BME280_temperature;BME280_humidity;BME280_pressure;Samples;Min_cycle;Max_cycle;Signal;HPM_P1;HPM_P2
2023/07/14 00:01:24;;;;;;;16.30;6.10;;;;;;;15.22;100.00;101450.97;5027941;28;20499;-68
2023/07/14 00:03:52;;;;;;;13.60;5.57;;;;;;;15.18;100.00;101445.44;5024919;28;20457;-70
2023/07/14 00:06:20;;;;;;;14.05;6.13;;;;;;;15.18;100.00;101447.44;5028709;28;20064;-70
2023/07/14 00:08:47;;;;;;;18.05;6.65;;;;;;;15.17;100.00;101449.47;5028476;28;20081;-70
2023/07/14 00:11:21;;;;;;;17.10;7.32;;;;;;;15.17;100.00;101445.88;5022101;28;20061;-70
2023/07/14 00:13:53;;;;;;;10.95;6.10;;;;;;;15.20;100.00;101445.00;5031083;28;20124;-71
2023/07/14 00:16:28;;;;;;;14.32;6.20;;;;;;;15.20;100.00;101445.00;5035802;28;20470;-69
2023/07/14 00:18:55;;;;;;;16.08;6.47;;;;;;;15.22;100.00;101436.97;5028673;28;20049;-68
2023/07/14 00:21:26;;;;;;;14.25;5.75;;;;;;;15.23;100.00;101436.53;5028777;28;20053;-70
2023/07/14 00:24:00;;;;;;;13.23;5.45;;;;;;;15.24;100.00;101428.91;5027439;28;20065;-72
2023/07/14 00:26:28;;;;;;;17.90;5.83;;;;;;;15.24;100.00;101432.50;5028289;28;20661;-72
2023/07/14 00:28:55;;;;;;;14.65;5.95;;;;;;;15.21;100.00;101424.97;5028910;28;20050;-70
2023/07/14 00:31:22;;;;;;;14.68;6.10;;;;;;;15.19;100.00;101426.63;5033166;28;20053;-71
2023/07/14 00:33:51;;;;;;;12.57;5.47;;;;;;;15.16;100.00;101417.09;5024926;28;20512;-70
2023/07/14 00:36:18;;;;;;;17.65;5.93;;;;;;;15.16;100.00;101411.50;5027880;28;20077;-71
2023/07/14 00:38:44;;;;;;;17.08;6.30;;;;;;;15.16;100.00;101416.28;5027713;28;20112;-69
2023/07/14 00:41:18;;;;;;;12.48;5.93;;;;;;;15.16;100.00;101419.91;5029557;28;20049;-72
2023/07/14 00:43:46;;;;;;;14.88;5.68;;;;;;;15.19;100.00;101418.22;5026857;28;20065;-71
2023/07/14 00:46:26;;;;;;;16.08;5.90;;;;;;;15.18;100.00;101414.63;5020580;28;20049;-71
2023/07/14 00:48:57;;;;;;;14.93;5.95;;;;;;;15.16;100.00;101417.09;5026728;28;20057;-70
2023/07/14 00:51:28;;;;;;;17.77;7.38;;;;;;;15.14;100.00;101422.31;5028522;28;20057;-68
2023/07/14 00:53:56;;;;;;;12.88;6.10;;;;;;;15.09;100.00;101419.25;5027197;28;20129;-71
2023/07/14 00:56:41;;;;;;;18.42;6.35;;;;;;;15.09;100.00;101417.22;5028837;28;20107;-71
2023/07/14 00:59:13;;;;;;;11.68;6.47;;;;;;;15.16;100.00;101422.69;5027002;28;20053;-69
2023/07/14 01:02:10;;;;;;;12.95;5.80;;;;;;;15.19;100.00;101419.00;5024527;28;20053;-70
2023/07/14 01:04:44;;;;;;;12.48;6.00;;;;;;;15.20;100.00;101423.41;5022196;28;20687;-71
2023/07/14 01:07:12;;;;;;;18.05;6.03;;;;;;;15.19;100.00;101409.84;5028149;28;20052;-71
2023/07/14 01:09:40;;;;;;;17.75;6.68;;;;;;;15.17;100.00;101401.84;5028651;28;20579;-71
2023/07/14 01:12:09;;;;;;;16.48;6.28;;;;;;;15.17;100.00;101413.06;5027376;28;20058;-69
2023/07/14 01:14:45;;;;;;;12.77;5.90;;;;;;;15.20;100.00;101428.22;5024283;28;20342;-71
2023/07/14 01:17:12;;;;;;;12.50;6.10;;;;;;;15.21;100.00;101436.19;5027569;28;20073;-72
2023/07/14 01:20:09;;;;;;;14.30;6.43;;;;;;;15.20;100.00;101434.59;5027596;28;20151;-71
2023/07/14 01:22:54;;;;;;;14.30;6.32;;;;;;;15.09;100.00;101431.22;5007379;28;20049;-72
2023/07/14 01:25:36;;;;;;;18.55;7.97;;;;;;;15.02;100.00;101431.38;5040508;28;20512;-68
2023/07/14 01:28:08;;;;;;;15.32;6.72;;;;;;;15.09;100.00;101422.81;5026823;28;20068;-69
2023/07/14 01:30:37;;;;;;;14.55;6.93;;;;;;;15.09;100.00;101417.22;5027717;28;20074;-69
2023/07/14 01:33:08;;;;;;;16.55;6.07;;;;;;;15.19;100.00;101418.22;5025768;28;20038;-68
2023/07/14 01:35:39;;;;;;;12.82;5.90;;;;;;;15.25;100.00;101420.06;5027840;28;20084;-71
2023/07/14 01:38:07;;;;;;;14.10;5.95;;;;;;;15.26;100.00;101413.25;5025759;28;20052;-72
2023/07/14 01:40:34;;;;;;;14.25;6.57;;;;;;;15.28;100.00;101415.63;5028071;28;20053;-70
2023/07/14 01:43:04;;;;;;;14.38;6.40;;;;;;;15.27;100.00;101414.84;5032808;28;20110;-69
2023/07/14 01:45:41;;;;;;;16.75;5.93;;;;;;;15.22;100.00;101411.78;5029099;28;20508;-69
2023/07/14 01:48:12;;;;;;;13.85;6.55;;;;;;;15.19;100.00;101416.19;5026706;28;20638;-68
2023/07/14 01:50:48;;;;;;;13.70;6.15;;;;;;;15.15;100.00;101409.88;5027371;28;20122;-71
2023/07/14 01:53:25;;;;;;;13.68;6.20;;;;;;;15.15;100.00;101414.72;5027749;28;20061;-70
2023/07/14 01:55:54;;;;;;;15.20;5.90;;;;;;;15.17;100.00;101415.06;5028151;28;20053;-70
2023/07/14 01:58:28;;;;;;;16.00;6.40;;;;;;;15.16;100.00;101414.28;5027174;28;20049;-71
2023/07/14 02:00:56;;;;;;;13.27;5.57;;;;;;;15.15;100.00;101414.72;5030955;28;20088;-71
2023/07/14 02:03:36;;;;;;;16.90;6.53;;;;;;;15.12;100.00;101407.94;5027719;28;20053;-71
2023/07/14 02:06:04;;;;;;;13.93;6.15;;;;;;;15.08;100.00;101404.44;5028044;28;20057;-69
2023/07/14 02:08:31;;;;;;;12.30;7.28;;;;;;;15.00;100.00;101412.19;5026962;28;20424;-67
2023/07/14 02:10:58;;;;;;;21.33;6.63;;;;;;;14.95;100.00;101409.91;5025000;28;20092;-72
2023/07/14 02:13:25;;;;;;;16.33;6.18;;;;;;;14.92;100.00;101407.97;5027610;28;20054;-72
2023/07/14 02:15:54;;;;;;;13.77;6.35;;;;;;;14.90;100.00;101399.22;5032072;28;20076;-70
2023/07/14 02:18:25;;;;;;;14.18;6.40;;;;;;;14.86;100.00;101394.91;5028424;28;20053;-70
2023/07/14 02:20:54;;;;;;;15.32;6.07;;;;;;;14.86;100.00;101394.91;5029683;28;20049;-70
2023/07/14 02:23:23;;;;;;;15.25;7.07;;;;;;;14.83;100.00;101404.16;5032575;28;20049;-69
2023/07/14 02:26:23;;;;;;;11.27;5.82;;;;;;;14.74;100.00;101395.53;5031234;28;20119;-71
2023/07/14 02:28:49;;;;;;;15.70;6.22;;;;;;;14.68;100.00;101389.66;5032271;28;20054;-70
2023/07/14 02:31:42;;;;;;;15.20;6.85;;;;;;;14.65;100.00;101398.13;5032559;28;20548;-69
2023/07/14 02:34:14;;;;;;;16.27;6.20;;;;;;;14.64;100.00;101402.13;5029478;28;20041;-72
2023/07/14 02:36:57;;;;;;;11.80;5.72;;;;;;;14.63;100.00;101398.56;5029669;28;20046;-70
2023/07/14 02:39:25;;;;;;;15.85;6.03;;;;;;;14.61;100.00;101405.78;5027704;28;20077;-72
2023/07/14 02:41:55;;;;;;;13.05;5.93;;;;;;;14.55;100.00;101399.91;5030086;28;20045;-70
2023/07/14 02:44:27;;;;;;;16.30;6.82;;;;;;;14.54;100.00;101403.13;5029837;28;20056;-71
2023/07/14 02:47:05;;;;;;;12.68;5.90;;;;;;;14.49;100.00;101403.63;5030783;28;20132;-71
2023/07/14 02:49:31;;;;;;;15.90;5.95;;;;;;;14.42;100.00;101396.13;5030917;28;20053;-68
2023/07/14 02:51:58;;;;;;;12.75;6.35;;;;;;;14.41;100.00;101404.94;5031255;28;20107;-72
2023/07/14 02:54:25;;;;;;;13.57;6.45;;;;;;;14.37;100.00;101396.63;5029233;28;20501;-72
2023/07/14 02:56:52;;;;;;;14.30;6.57;;;;;;;14.34;100.00;101394.66;5030624;28;20060;-72
2023/07/14 02:59:19;;;;;;;18.40;6.82;;;;;;;14.30;100.00;101393.94;5030775;28;20092;-72
2023/07/14 03:01:45;;;;;;;20.55;6.97;;;;;;;14.29;100.00;101391.56;5029613;28;20107;-71
2023/07/14 03:04:12;;;;;;;13.57;6.35;;;;;;;14.25;100.00;101388.84;5027010;28;20073;-72
2023/07/14 03:06:39;;;;;;;13.68;7.00;;;;;;;14.22;100.00;101389.69;5029872;28;20053;-69
2023/07/14 03:09:05;;;;;;;16.55;6.65;;;;;;;14.20;100.00;101392.13;5029182;28;20053;-70
2023/07/14 03:11:32;;;;;;;20.50;6.38;;;;;;;14.19;100.00;101386.97;5027093;28;20053;-70
2023/07/14 03:13:58;;;;;;;15.82;6.28;;;;;;;14.17;100.00;101384.59;5022217;28;20077;-70
2023/07/14 03:16:25;;;;;;;16.23;6.97;;;;;;;14.16;100.00;101383.03;5030568;28;20091;-72
2023/07/14 03:18:52;;;;;;;14.40;6.28;;;;;;;14.16;100.00;101390.59;5030105;28;20540;-70
2023/07/14 03:21:19;;;;;;;13.13;6.00;;;;;;;14.13;100.00;101386.66;5036523;28;20420;-70
2023/07/14 03:23:45;;;;;;;16.92;6.70;;;;;;;14.14;100.00;101373.44;5030297;28;20045;-70
2023/07/14 03:26:12;;;;;;;17.33;7.00;;;;;;;14.12;100.00;101381.50;5028371;28;20053;-70
2023/07/14 03:28:39;;;;;;;15.95;7.85;;;;;;;14.04;100.00;101361.25;5035663;28;20076;-70
2023/07/14 03:31:05;;;;;;;12.55;6.40;;;;;;;14.08;100.00;101375.94;5027720;28;20128;-72
2023/07/14 03:33:33;;;;;;;12.07;6.30;;;;;;;14.08;100.00;101370.34;5028322;28;20051;-70
2023/07/14 03:36:08;;;;;;;13.75;6.55;;;;;;;14.04;100.00;101375.22;5030044;28;20062;-71
2023/07/14 03:38:43;;;;;;;16.17;7.10;;;;;;;14.04;100.00;101368.88;5030073;28;20045;-70
2023/07/14 03:41:12;;;;;;;14.05;6.15;;;;;;;14.00;100.00;101359.72;5028976;28;20081;-72
2023/07/14 03:43:39;;;;;;;14.95;7.03;;;;;;;13.97;100.00;101368.97;5029966;28;20661;-69
2023/07/14 03:46:07;;;;;;;12.55;6.28;;;;;;;13.92;100.00;101363.88;5028187;28;20046;-72
2023/07/14 03:48:34;;;;;;;16.75;6.78;;;;;;;13.92;100.00;101367.47;5028720;28;20057;-70
2023/07/14 03:51:04;;;;;;;18.30;7.45;;;;;;;13.89;100.00;101362.72;5027944;28;20053;-70
2023/07/14 03:53:31;;;;;;;16.08;7.75;;;;;;;13.90;100.00;101369.88;5029221;28;20115;-70
2023/07/14 03:55:58;;;;;;;15.50;7.65;;;;;;;13.89;100.00;101362.72;5030559;28;20125;-72
2023/07/14 03:58:25;;;;;;;18.50;8.07;;;;;;;13.87;100.00;101364.38;5028335;28;20058;-69
2023/07/14 04:00:51;;;;;;;17.33;7.55;;;;;;;13.84;100.00;101363.19;5029389;28;20086;-69
2023/07/14 04:03:18;;;;;;;17.55;7.38;;;;;;;13.87;100.00;101358.78;5027383;28;20053;-72
2023/07/14 04:05:46;;;;;;;16.63;7.97;;;;;;;13.84;100.00;101354.81;5029170;28;20053;-70
2023/07/14 04:08:13;;;;;;;15.65;7.07;;;;;;;13.89;100.00;101356.31;5028851;28;20368;-70
2023/07/14 04:10:40;;;;;;;16.00;7.60;;;;;;;13.90;100.00;101364.28;5029644;28;20053;-70
2023/07/14 04:13:06;;;;;;;16.50;7.38;;;;;;;13.92;100.00;101366.66;5027783;28;20053;-71
2023/07/14 04:15:33;;;;;;;17.35;7.13;;;;;;;13.97;100.00;101366.16;5029059;28;20053;-69
2023/07/14 04:17:59;;;;;;;15.65;6.95;;;;;;;14.00;100.00;101373.69;5028967;28;20826;-68
2023/07/14 04:20:26;;;;;;;15.52;6.78;;;;;;;14.05;100.00;101373.22;5029129;28;20141;-70
2023/07/14 04:22:53;;;;;;;12.77;7.15;;;;;;;14.09;100.00;101376.75;5028478;28;20077;-71
2023/07/14 04:25:19;;;;;;;17.02;7.22;;;;;;;14.11;100.00;101363.91;5029171;28;20045;-69
2023/07/14 04:27:46;;;;;;;15.45;7.40;;;;;;;14.18;100.00;101368.59;5029089;28;20053;-69
2023/07/14 04:30:13;;;;;;;13.88;6.97;;;;;;;14.23;100.00;101373.69;5028079;28;20053;-71
2023/07/14 04:32:39;;;;;;;17.33;7.07;;;;;;;14.27;100.00;101363.22;5028506;28;20530;-68
2023/07/14 04:35:07;;;;;;;17.25;7.43;;;;;;;14.31;100.00;101361.97;5028818;28;20053;-71
2023/07/14 04:37:34;;;;;;;14.63;6.57;;;;;;;14.30;100.00;101354.78;5034971;28;20045;-68
2023/07/14 04:40:02;;;;;;;16.75;7.28;;;;;;;14.43;100.00;101371.75;5032723;28;20509;-69
2023/07/14 04:42:28;;;;;;;15.38;6.72;;;;;;;14.49;100.00;101358.88;5030385;28;20520;-71
2023/07/14 04:44:55;;;;;;;18.50;6.93;;;;;;;14.52;100.00;101358.00;5031078;28;20053;-69
2023/07/14 04:47:21;;;;;;;13.30;6.22;;;;;;;14.63;100.00;101361.38;5027500;28;20053;-71
2023/07/14 04:49:48;;;;;;;20.10;7.35;;;;;;;14.71;100.00;101362.81;5029789;28;20049;-70
2023/07/14 04:52:15;;;;;;;16.80;6.10;;;;;;;14.79;100.00;101365.03;5026005;28;20095;-69
2023/07/14 04:54:41;;;;;;;13.52;6.07;;;;;;;14.80;100.00;101358.25;5023446;28;20203;-72
2023/07/14 04:57:08;;;;;;;18.48;6.07;;;;;;;14.83;100.00;101353.78;5042458;28;20612;-71
2023/07/14 04:59:35;;;;;;;15.25;6.18;;;;;;;14.85;100.00;101354.91;5029434;28;20087;-71
2023/07/14 05:02:05;;;;;;;11.18;5.25;;;;;;;14.91;100.00;101349.59;5026617;28;20152;-69
2023/07/14 05:04:32;;;;;;;15.82;5.72;;;;;;;15.02;100.00;101356.56;5027425;28;20148;-69
2023/07/14 05:06:59;;;;;;;11.30;5.43;;;;;;;14.99;100.00;101351.06;5027860;28;20053;-68
2023/07/14 05:09:25;;;;;;;13.73;5.68;;;;;;;15.09;100.00;101347.19;5033003;28;20073;-71
2023/07/14 05:11:52;;;;;;;16.75;5.97;;;;;;;15.11;100.00;101336.38;5025465;28;20516;-70
2023/07/14 05:14:19;;;;;;;17.65;5.97;;;;;;;15.15;100.00;101344.69;5026221;28;20496;-70
2023/07/14 05:16:45;;;;;;;20.55;5.57;;;;;;;15.10;100.00;101339.59;5029155;28;20045;-69
2023/07/14 05:19:12;;;;;;;11.57;5.18;;;;;;;15.25;100.00;101346.47;5029155;28;20049;-69
2023/07/14 05:21:39;;;;;;;10.32;5.60;;;;;;;15.22;100.00;101341.75;5025283;28;20049;-72
2023/07/14 05:24:06;;;;;;;11.90;5.68;;;;;;;15.26;100.00;101342.44;5028488;28;20046;-71
2023/07/14 05:26:33;;;;;;;13.80;5.40;;;;;;;15.28;100.00;101340.78;5024472;28;20069;-69
2023/07/14 05:29:00;;;;;;;14.30;5.95;;;;;;;15.41;100.00;101340.91;5027024;28;20057;-70
2023/07/14 05:31:26;;;;;;;12.10;5.05;;;;;;;15.37;100.00;101334.59;5028054;28;20049;-69
2023/07/14 05:33:53;;;;;;;12.98;5.63;;;;;;;15.50;100.00;101339.09;5027842;28;20049;-71
2023/07/14 05:36:20;;;;;;;14.15;5.10;;;;;;;15.55;100.00;101332.97;5030605;28;20059;-70
2023/07/14 05:38:46;;;;;;;11.95;5.22;;;;;;;15.55;100.00;101341.38;5031982;28;20076;-71
2023/07/14 05:41:13;;;;;;;19.17;6.13;;;;;;;15.50;100.00;101333.50;5025387;28;20057;-70
2023/07/14 05:43:40;;;;;;;18.30;5.68;;;;;;;15.56;100.00;101342.19;5031446;28;20072;-69
2023/07/14 05:46:06;;;;;;;16.33;5.30;;;;;;;15.57;100.00;101338.94;5026180;28;20041;-72
2023/07/14 05:48:33;;;;;;;14.63;5.75;;;;;;;15.55;100.00;101344.19;5027976;28;20582;-70
2023/07/14 05:51:00;;;;;;;13.73;4.70;;;;;;;15.61;100.00;101341.63;5032214;28;20080;-70
2023/07/14 05:53:27;;;;;;;17.67;5.38;;;;;;;15.69;100.00;101340.25;5030374;28;20067;-72
2023/07/14 05:55:56;;;;;;;14.98;5.57;;;;;;;15.69;100.00;101343.84;5030809;28;20076;-70
2023/07/14 05:58:23;;;;;;;14.32;5.60;;;;;;;15.75;100.00;101344.88;5032014;28;20077;-71
2023/07/14 06:00:53;;;;;;;15.95;5.97;;;;;;;15.78;100.00;101338.41;5031908;28;20049;-69
2023/07/14 06:03:20;;;;;;;17.27;5.95;;;;;;;15.84;100.00;101336.66;5030300;28;20662;-71
2023/07/14 06:05:47;;;;;;;12.60;4.90;;;;;;;15.88;100.00;101342.97;5029917;28;20057;-72
2023/07/14 06:08:15;;;;;;;10.82;4.90;;;;;;;15.92;100.00;101340.06;5046867;28;20049;-75
2023/07/14 06:10:41;;;;;;;14.25;5.60;;;;;;;16.10;100.00;101341.19;5037242;28;20056;-76
2023/07/14 06:13:08;;;;;;;17.38;5.63;;;;;;;16.11;100.00;101333.56;5028690;28;20738;-74
2023/07/14 06:15:35;;;;;;;15.13;5.78;;;;;;;16.18;100.00;101328.56;5027117;28;20069;-75
2023/07/14 06:18:07;;;;;;;17.05;5.13;;;;;;;16.26;100.00;101335.56;5031104;28;20061;-73
2023/07/14 06:20:34;;;;;;;13.52;5.18;;;;;;;16.34;100.00;101336.94;5031252;28;20548;-72
2023/07/14 06:23:01;;;;;;;7.70;3.45;;;;;;;16.33;100.00;101343.00;5029279;28;20057;-73
2023/07/14 06:25:27;;;;;;;17.05;5.10;;;;;;;16.50;100.00;101336.13;5030881;28;20045;-75
2023/07/14 06:27:54;;;;;;;13.88;4.82;;;;;;;16.41;100.00;101325.53;5030801;28;20057;-75
2023/07/14 06:30:24;;;;;;;9.32;2.40;;;;;;;16.49;100.00;101334.53;5026797;28;20050;-72
2023/07/14 06:32:51;;;;;;;10.75;4.72;;;;;;;16.67;100.00;101329.22;5025718;28;20453;-73
2023/07/14 06:35:19;;;;;;;11.20;4.68;;;;;;;16.82;100.00;101331.19;5030047;28;20045;-73
2023/07/14 06:37:46;;;;;;;11.07;4.68;;;;;;;16.76;100.00;101324.53;5028950;28;20049;-72
2023/07/14 06:40:13;;;;;;;13.63;5.32;;;;;;;16.85;100.00;101310.59;5042792;28;20050;-74
2023/07/14 06:42:40;;;;;;;12.63;3.78;;;;;;;16.85;100.00;101318.28;5027736;28;20049;-74
2023/07/14 06:45:07;;;;;;;15.05;4.43;;;;;;;16.98;100.00;101316.28;5031359;28;20049;-77
2023/07/14 06:47:33;;;;;;;11.45;4.45;;;;;;;17.03;100.00;101308.06;5031291;28;20064;-73
2023/07/14 06:50:00;;;;;;;12.07;4.25;;;;;;;16.97;100.00;101304.25;5026802;28;20052;-76
2023/07/14 06:52:27;;;;;;;13.65;4.25;;;;;;;17.09;100.00;101300.63;5029974;28;20516;-77
2023/07/14 06:54:54;;;;;;;2.65;1.75;;;;;;;17.19;100.00;101302.38;5035177;28;20080;-76
2023/07/14 06:57:21;;;;;;;13.63;3.80;;;;;;;17.29;100.00;101290.00;5029860;28;20087;-76
2023/07/14 06:59:47;;;;;;;13.55;4.10;;;;;;;17.38;100.00;101298.56;5039706;28;20053;-77
2023/07/14 07:02:14;;;;;;;10.38;4.57;;;;;;;17.43;100.00;101292.34;5035193;28;20485;-75
2023/07/14 07:04:41;;;;;;;10.05;3.63;;;;;;;17.48;100.00;101290.25;5029985;28;20571;-76
2023/07/14 07:07:08;;;;;;;13.82;4.50;;;;;;;17.62;100.00;101282.09;5029259;28;20467;-75
2023/07/14 07:09:35;;;;;;;15.23;4.10;;;;;;;17.54;100.00;101282.78;5026675;28;20532;-70
2023/07/14 07:12:03;;;;;;;12.10;4.05;;;;;;;17.78;100.00;101281.97;5027549;28;20060;-67
2023/07/14 07:14:29;;;;;;;14.80;5.28;;;;;;;17.94;100.00;101281.06;5025952;28;20099;-69
2023/07/14 07:16:56;;;;;;;6.80;2.88;;;;;;;17.75;100.00;101279.28;5026333;28;20053;-69
2023/07/14 07:19:23;;;;;;;6.40;2.05;;;;;;;17.87;100.00;101284.88;5021624;28;20479;-69
2023/07/14 07:21:49;;;;;;;10.32;3.92;;;;;;;17.96;100.00;101284.97;5023212;28;20215;-71
2023/07/14 07:24:17;;;;;;;10.80;4.03;;;;;;;17.98;100.00;101281.72;5024615;28;20457;-70
2023/07/14 07:26:43;;;;;;;8.55;3.38;;;;;;;18.04;100.00;101283.50;5030669;28;20761;-72
2023/07/14 07:29:10;;;;;;;9.75;3.10;;;;;;;18.21;100.00;101281.28;5029230;28;20069;-71
2023/07/14 07:31:36;;;;;;;8.18;3.25;;;;;;;18.31;100.00;101274.50;5028566;28;20049;-71
2023/07/14 07:34:03;;;;;;;11.25;3.42;;;;;;;18.23;100.00;101276.00;5023654;28;20053;-70
2023/07/14 07:36:30;;;;;;;3.72;1.55;;;;;;;18.24;100.00;101277.56;5024069;28;20053;-69
2023/07/14 07:38:57;;;;;;;8.77;2.83;;;;;;;18.33;100.00;101274.84;5025098;28;20065;-70
2023/07/14 07:41:25;;;;;;;10.88;3.38;;;;;;;18.49;100.00;101266.97;5028865;28;20049;-72
2023/07/14 07:43:53;;;;;;;10.30;3.58;;;;;;;18.53;100.00;101264.03;5030099;28;20917;-70
2023/07/14 07:46:22;;;;;;;8.77;2.80;;;;;;;18.53;100.00;101256.34;5026728;28;20065;-70
2023/07/14 07:48:50;;;;;;;21.73;3.65;;;;;;;18.61;100.00;101259.69;5034890;28;20504;-71
2023/07/14 07:51:17;;;;;;;9.18;3.38;;;;;;;18.73;100.00;101262.47;5028761;28;20224;-73
2023/07/14 07:53:44;;;;;;;6.00;2.72;;;;;;;18.74;100.00;101249.16;5024256;28;20159;-72
2023/07/14 07:56:10;;;;;;;8.38;2.80;;;;;;;18.91;100.00;101253.34;5027232;28;20041;-71
2023/07/14 07:58:38;;;;;;;7.68;2.83;;;;;;;18.98;100.00;101253.06;5027884;28;20080;-71
2023/07/14 08:01:07;;;;;;;7.43;3.08;;;;;;;18.90;100.00;101246.91;5024468;28;20049;-72
2023/07/14 08:03:34;;;;;;;6.90;2.25;;;;;;;18.85;100.00;101255.16;5027256;28;20049;-72
2023/07/14 08:06:03;;;;;;;8.13;2.85;;;;;;;18.89;100.00;101242.53;5035660;28;20405;-70
2023/07/14 08:08:30;;;;;;;10.98;3.40;;;;;;;19.10;100.00;101246.50;5027851;28;20073;-68
2023/07/14 08:10:57;;;;;;;8.52;3.10;;;;;;;19.24;100.00;101231.88;5028695;28;20107;-73
2023/07/14 08:13:25;;;;;;;8.15;2.70;;;;;;;19.38;100.00;101236.91;5034395;28;20140;-71
2023/07/14 08:15:53;;;;;;;7.82;2.38;;;;;;;19.33;100.00;101241.13;5025045;28;20504;-73
2023/07/14 08:18:21;;;;;;;7.95;2.63;;;;;;;19.32;100.00;101238.78;5021152;28;20172;-73
2023/07/14 08:20:49;;;;;;;3.35;1.35;;;;;;;19.33;100.00;101245.97;5026285;28;20045;-70
2023/07/14 08:23:17;;;;;;;3.67;1.77;;;;;;;19.38;100.00;101234.09;5025115;28;20050;-70
2023/07/14 08:25:43;;;;;;;5.40;2.22;;;;;;;19.63;100.00;101236.69;5028130;28;20812;-69
2023/07/14 08:28:10;;;;;;;7.78;2.25;;;;;;;19.66;100.00;101242.19;5030391;28;20064;-73
2023/07/14 08:30:37;;;;;;;8.30;3.13;;;;;;;19.74;100.00;101228.53;5035075;28;20060;-73
2023/07/14 08:33:03;;;;;;;8.90;3.03;;;;;;;19.84;100.00;101230.13;5024553;28;20049;-68
2023/07/14 08:35:30;;;;;;;10.07;3.47;;;;;;;19.90;100.00;101231.06;5019986;28;20563;-68
2023/07/14 08:37:57;;;;;;;6.57;3.17;;;;;;;19.96;100.00;101239.69;5025616;28;20128;-66
2023/07/14 08:40:31;;;;;;;6.82;2.83;;;;;;;19.99;100.00;101239.56;5028864;28;20479;-68
2023/07/14 08:42:58;;;;;;;8.07;2.85;;;;;;;20.04;100.00;101233.25;5031850;28;20581;-72
2023/07/14 08:45:30;;;;;;;10.20;2.95;;;;;;;20.15;100.00;101227.16;5020605;28;20580;-73
2023/07/14 08:48:28;;;;;;;6.18;2.45;;;;;;;20.22;100.00;101227.63;5018982;28;20095;-70
2023/07/14 08:51:01;;;;;;;8.98;2.88;;;;;;;20.49;100.00;101235.31;5024293;28;20049;-69
2023/07/14 08:53:31;;;;;;;8.15;3.17;;;;;;;20.53;100.00;101225.41;5029264;28;20049;-68
2023/07/14 08:56:05;;;;;;;2.90;1.33;;;;;;;20.37;100.00;101236.25;5026439;28;20061;-71
2023/07/14 08:58:38;;;;;;;9.80;2.42;;;;;;;20.29;100.00;101223.72;5021027;28;20042;-71
2023/07/14 09:01:18;;;;;;;11.88;2.90;;;;;;;20.57;100.00;101220.38;5024527;28;20503;-71
2023/07/14 09:03:50;;;;;;;6.10;2.72;;;;;;;20.84;100.00;101223.13;5031482;28;20520;-69
2023/07/14 09:06:17;;;;;;;4.32;1.65;;;;;;;20.94;100.00;101223.91;5028396;28;20112;-69
2023/07/14 09:08:44;;;;;;;11.50;3.22;;;;;;;20.92;100.00;101215.84;5027145;28;20045;-69
2023/07/14 09:11:34;;;;;;;9.73;2.35;;;;;;;20.75;100.00;101209.00;5034023;28;20041;-71
2023/07/14 09:14:28;;;;;;;7.65;1.45;;;;;;;20.85;100.00;101215.41;5044567;28;20045;-71
2023/07/14 09:17:24;;;;;;;2.50;1.25;;;;;;;21.03;100.00;101209.72;5027338;28;20041;-70
2023/07/14 09:20:06;;;;;;;5.07;1.90;;;;;;;21.09;100.00;101217.06;5025423;28;20041;-69
2023/07/14 09:22:43;;;;;;;7.25;2.97;;;;;;;21.33;100.00;101198.09;5027051;28;20136;-71
2023/07/14 09:25:38;;;;;;;7.57;2.50;;;;;;;21.46;100.00;101201.47;5024910;28;20501;-70
2023/07/14 09:28:17;;;;;;;4.88;2.10;;;;;;;21.49;100.00;101203.34;5022340;28;20069;-70
2023/07/14 09:30:45;;;;;;;12.35;2.63;;;;;;;21.60;100.00;101200.75;5028518;28;20095;-70
2023/07/14 09:33:16;;;;;;;8.15;2.83;;;;;;;21.62;100.00;101186.91;5026099;28;20954;-72
2023/07/14 09:35:45;;;;;;;4.75;2.22;;;;;;;21.87;100.00;101183.59;5018620;28;20053;-71
2023/07/14 09:38:19;;;;;;;5.22;1.85;;;;;;;21.80;100.00;101188.81;5024006;28;20052;-69
2023/07/14 09:40:48;;;;;;;5.20;1.75;;;;;;;21.98;100.00;101192.28;5024473;28;20100;-67
2023/07/14 09:43:15;;;;;;;5.60;2.40;;;;;;;22.06;100.00;101187.84;5020670;28;20469;-71
2023/07/14 09:45:43;;;;;;;6.97;2.30;;;;;;;21.96;100.00;101189.19;5043969;28;20069;-69
2023/07/14 09:48:30;;;;;;;4.03;1.35;;;;;;;21.90;100.00;101185.44;5023205;28;20053;-71
2023/07/14 09:51:05;;;;;;;6.25;2.33;;;;;;;22.00;100.00;101186.94;5031743;28;20111;-67
2023/07/14 09:53:32;;;;;;;;;;;;;;;21.95;100.00;101176.31;5032181;28;20054;-72
2023/07/14 09:56:10;;;;;;;9.25;2.55;;;;;;;22.01;100.00;101177.16;5032149;28;19928;-71
2023/07/14 09:58:37;;;;;;;8.25;3.15;;;;;;;22.08;100.00;101170.34;5036792;28;20095;-70
2023/07/14 10:01:11;;;;;;;5.95;2.10;;;;;;;22.00;100.00;101163.50;5030175;28;20057;-71
2023/07/14 10:03:43;;;;;;;;;;;;;;;21.72;100.00;101167.84;5035677;28;20045;-67
2023/07/14 10:06:30;;;;;;;4.93;1.63;;;;;;;21.65;100.00;101156.88;5029619;28;19968;-71
2023/07/14 10:08:59;;;;;;;6.47;2.40;;;;;;;21.85;100.00;101155.00;5036407;28;20053;-68
2023/07/14 10:11:28;;;;;;;2.40;0.98;;;;;;;21.89;100.00;101155.59;5019812;28;20103;-66
2023/07/14 10:14:15;;;;;;;9.65;2.08;;;;;;;21.89;100.00;101155.59;5024862;28;20045;-70
2023/07/14 10:16:44;;;;;;;5.20;2.10;;;;;;;21.98;100.00;101152.66;5025921;28;20085;-69
2023/07/14 10:19:14;;;;;;;6.47;2.20;;;;;;;21.93;100.00;101155.38;5033811;28;20129;-67
2023/07/14 10:21:57;;;;;;;6.07;1.88;;;;;;;21.83;100.00;101139.75;5023836;28;20068;-68
2023/07/14 10:24:24;;;;;;;0.70;0.63;;;;;;;22.07;100.00;101146.13;5029057;28;20065;-66
2023/07/14 10:26:57;;;;;;;2.65;1.42;;;;;;;22.03;100.00;101137.03;5026609;28;20068;-67
2023/07/14 10:29:26;;;;;;;8.23;2.63;;;;;;;22.23;100.00;101134.31;5030736;28;20053;-67
2023/07/14 10:32:05;;;;;;;6.38;2.75;;;;;;;22.29;100.00;101131.59;5027432;28;20119;-69
2023/07/14 10:34:50;;;;;;;8.27;2.42;;;;;;;22.50;100.00;101131.22;5018897;28;20583;-70
2023/07/14 10:37:30;;;;;;;8.07;2.67;;;;;;;22.63;100.00;101116.72;5016628;28;20135;-68
2023/07/14 10:40:04;;;;;;;7.57;2.80;;;;;;;22.76;100.00;101120.81;5025808;28;20069;-71
2023/07/14 10:42:34;;;;;;;3.93;1.70;;;;;;;22.59;100.00;101113.31;5026717;28;20508;-68
2023/07/14 10:45:02;;;;;;;6.82;2.75;;;;;;;22.77;100.00;101104.56;5028688;28;20054;-68
2023/07/14 10:47:52;;;;;;;9.65;2.30;;;;;;;22.76;100.00;101108.69;5020306;28;20053;-65
2023/07/14 10:50:22;;;;;;;11.23;3.13;;;;;;;22.73;100.00;101116.13;5044377;28;20053;-67
2023/07/14 10:52:57;;;;;;;8.18;2.70;;;;;;;22.75;100.00;101107.13;5020528;28;20141;-70
2023/07/14 10:55:28;;;;;;;10.30;3.22;;;;;;;22.98;100.00;101098.47;5020129;28;20057;-67
2023/07/14 10:58:00;;;;;;;9.70;2.67;;;;;;;23.02;100.00;101087.72;5019200;28;20057;-69
2023/07/14 11:00:44;;;;;;;9.80;3.28;;;;;;;23.11;100.00;101089.63;5025711;28;20099;-67
2023/07/14 11:03:35;;;;;;;8.88;3.10;;;;;;;23.40;100.00;101076.09;5022384;28;20080;-67
2023/07/14 11:06:10;;;;;;;10.60;2.90;;;;;;;23.37;100.00;101067.78;5027421;28;20049;-68
2023/07/14 11:08:37;;;;;;;13.05;2.85;;;;;;;23.33;100.00;101075.75;5022009;28;20096;-70
2023/07/14 11:11:15;;;;;;;9.55;3.63;;;;;;;23.37;100.00;101070.63;5024096;28;20542;-69
2023/07/14 11:14:03;;;;;;;7.07;3.35;;;;;;;23.46;100.00;101071.25;5028211;28;20076;-71
2023/07/14 11:16:40;;;;;;;12.18;3.30;;;;;;;23.65;100.00;101068.91;5022386;28;20155;-70
2023/07/14 11:19:56;;;;;;;8.50;2.90;;;;;;;23.31;100.00;101061.28;5024081;28;20164;-70
2023/07/14 11:22:52;;;;;;;11.20;3.20;;;;;;;23.50;100.00;101060.50;5022718;28;20073;-69
2023/07/14 11:25:49;;;;;;;6.45;2.80;;;;;;;23.81;100.00;101060.59;5043710;28;20058;-67
2023/07/14 11:28:25;;;;;;;8.23;3.22;;;;;;;24.23;100.00;101051.41;4955220;28;20055;-68